Time;durP1;ratioP1;P1;durP2;ratioP2;P2;SDS_P1;SDS_P2;PMS_P1;PMS_P2;Temp;Humidity;BMP_temperature;BMP_pressure;BME280_temperature;BME280_humidity;BME280_pressure;Samples;Min_cycle;Max_cycle;Signal;HPM_P1;HPM_P2
2022/03/24 00:09:45;;;;;;;19.07;6.53;;;;;;;4.75;35.21;101026.72;30848867;28;20059;-80
2022/03/24 00:24:47;;;;;;;15.37;7.80;;;;;;;4.84;35.10;101003.06;30877854;28;20082;-81
2022/03/24 00:39:49;;;;;;;18.40;9.90;;;;;;;4.96;36.95;100984.03;30868959;28;20101;-80
2022/03/24 00:54:51;;;;;;;27.07;10.07;;;;;;;4.75;36.75;100986.38;30885611;28;20458;-80
2022/03/24 01:09:53;;;;;;;25.00;10.10;;;;;;;4.74;36.12;100957.91;30894964;28;20051;-81
2022/03/24 01:24:56;;;;;;;20.73;12.30;;;;;;;4.53;37.52;100949.47;30893145;28;20066;-78
2022/03/24 01:39:58;;;;;;;13.70;7.20;;;;;;;4.49;35.98;100949.38;30922593;28;20418;-81
2022/03/24 01:55:01;;;;;;;19.40;8.50;;;;;;;4.57;36.86;100950.31;30882349;28;20102;-81
2022/03/24 02:10:08;;;;;;;16.57;8.83;;;;;;;4.49;37.30;100932.50;30896636;28;20054;-81
2022/03/24 02:25:11;;;;;;;19.73;8.80;;;;;;;4.44;36.62;100912.84;30873561;28;20039;-80
2022/03/24 02:40:14;;;;;;;11.90;7.33;;;;;;;4.47;36.79;100918.66;30884508;28;20059;-80
2022/03/24 02:55:16;;;;;;;15.27;8.57;;;;;;;4.47;36.97;100915.97;30887042;28;20050;-80
2022/03/24 03:10:18;;;;;;;14.43;8.30;;;;;;;4.45;37.14;100906.34;30869440;28;20059;-81
2022/03/24 03:25:21;;;;;;;22.60;8.70;;;;;;;4.44;36.56;100898.63;30868400;28;20047;-81
2022/03/24 03:40:24;;;;;;;19.63;9.03;;;;;;;4.39;37.07;100888.16;30869905;28;20050;-81
2022/03/24 03:55:26;;;;;;;25.20;8.67;;;;;;;4.31;37.52;100878.41;30882982;28;20055;-79
2022/03/24 04:10:28;;;;;;;16.83;9.13;;;;;;;4.38;37.79;100865.88;30897359;28;20051;-79
2022/03/24 04:25:30;;;;;;;28.37;10.37;;;;;;;4.15;38.83;100854.31;30882565;28;20141;-78
2022/03/24 04:40:37;;;;;;;25.43;11.10;;;;;;;4.39;40.73;100847.84;30888786;28;20409;-78
2022/03/24 04:55:41;;;;;;;32.17;13.07;;;;;;;4.61;41.03;100840.91;30901199;28;20787;-80
2022/03/24 05:10:43;;;;;;;27.67;12.43;;;;;;;5.50;40.74;100834.88;30902429;28;20395;-78
2022/03/24 05:25:48;;;;;;;24.83;13.73;;;;;;;6.64;38.60;100836.06;30892754;28;20054;-77
2022/03/24 05:40:50;;;;;;;19.77;10.03;;;;;;;7.82;34.62;100828.25;30889693;28;20047;-78
2022/03/24 05:55:52;;;;;;;20.50;11.50;;;;;;;8.37;32.77;100825.31;30884683;28;20051;-79
2022/03/24 06:10:54;;;;;;;21.17;10.83;;;;;;;9.40;30.43;100819.00;30872455;28;20055;-79
2022/03/24 06:25:57;;;;;;;33.70;10.87;;;;;;;10.57;29.16;100791.97;30868040;28;20054;-78
2022/03/24 06:41:02;;;;;;;20.60;9.83;;;;;;;11.08;29.00;100797.69;30867553;28;20146;-79
2022/03/24 06:56:05;;;;;;;22.20;10.83;;;;;;;11.07;29.26;100790.69;30867184;28;20058;-78
2022/03/24 07:11:07;;;;;;;14.03;7.50;;;;;;;11.70;27.37;100783.72;30852094;28;20054;-76
2022/03/24 07:26:09;;;;;;;14.10;6.57;;;;;;;12.85;25.06;100750.78;30888875;28;20059;-77
2022/03/24 07:41:12;;;;;;;11.53;5.47;;;;;;;13.17;25.05;100733.84;30904658;28;20056;-77
2022/03/24 07:56:16;;;;;;;8.03;4.77;;;;;;;13.96;23.71;100723.50;30897750;28;20047;-78
2022/03/24 08:11:19;;;;;;;7.10;4.73;;;;;;;14.24;22.78;100726.75;30912412;28;20138;-77
2022/03/24 08:26:22;;;;;;;13.03;5.77;;;;;;;14.74;22.11;100709.09;30898389;28;20138;-77
2022/03/24 08:41:27;;;;;;;;;;;;;;;15.25;21.09;100697.09;30882789;28;20188;-73
2022/03/24 08:56:29;;;;;;;10.43;5.80;;;;;;;15.34;21.44;100669.88;30879376;28;19930;-80
2022/03/24 09:11:31;;;;;;;8.40;5.30;;;;;;;16.35;19.83;100632.59;30878253;28;20054;-76
2022/03/24 09:26:37;;;;;;;10.17;4.60;;;;;;;16.98;19.19;100609.59;30868744;28;20101;-77
2022/03/24 09:41:40;;;;;;;7.67;4.90;;;;;;;17.69;18.39;100587.59;30868482;28;20066;-74
2022/03/24 09:56:43;;;;;;;8.83;4.77;;;;;;;17.81;18.22;100583.94;30862957;28;20055;-82
2022/03/24 10:11:49;;;;;;;11.90;4.88;;;;;;;18.27;17.05;100559.22;30869120;28;20059;-76
2022/03/24 10:26:59;;;;;;;14.38;4.13;;;;;;;18.17;16.44;100541.22;30842051;28;20047;-83
2022/03/24 10:42:14;;;;;;;8.93;4.53;;;;;;;18.37;15.30;100527.75;30845895;28;20054;-76
2022/03/24 10:57:21;;;;;;;16.13;4.90;;;;;;;18.61;16.11;100509.38;30839094;28;20594;-76
2022/03/24 11:12:38;;;;;;;8.82;3.00;;;;;;;18.44;13.82;100491.69;30868863;28;20414;-80
2022/03/24 11:27:40;;;;;;;6.00;3.53;;;;;;;18.81;14.10;100478.59;30834472;28;20090;-73
2022/03/24 11:42:53;;;;;;;7.50;3.72;;;;;;;19.68;13.76;100451.88;30841875;28;20046;-75
2022/03/24 11:58:00;;;;;;;12.77;4.25;;;;;;;19.87;12.72;100450.47;30842931;28;20055;-76
2022/03/24 12:13:02;;;;;;;17.33;8.32;;;;;;;16.84;13.97;100429.16;30864508;28;20612;-74
2022/03/24 12:28:15;;;;;;;10.00;4.87;;;;;;;14.66;15.04;100418.91;30867136;28;20142;-76
2022/03/24 12:43:27;;;;;;;6.33;3.63;;;;;;;13.64;15.17;100426.16;30868861;28;20675;-74
2022/03/24 12:58:29;;;;;;;6.60;3.10;;;;;;;13.38;16.18;100416.34;30849739;28;20051;-77
2022/03/24 13:13:31;;;;;;;6.60;3.10;;;;;;;12.95;16.41;100390.13;30855869;28;20055;-79
2022/03/24 13:28:35;;;;;;;5.87;2.77;;;;;;;12.74;17.10;100385.22;30886452;28;20094;-76
2022/03/24 13:43:37;;;;;;;4.90;2.70;;;;;;;12.72;16.93;100354.91;30861316;28;20062;-75
2022/03/24 13:58:41;;;;;;;4.53;3.13;;;;;;;12.58;16.94;100358.72;30878080;28;20065;-73
2022/03/24 14:13:50;;;;;;;8.57;3.53;;;;;;;12.69;16.95;100355.75;30866694;28;20142;-81
2022/03/24 14:28:52;;;;;;;8.23;3.40;;;;;;;12.50;17.38;100369.03;30852950;28;20141;-74
2022/03/24 14:43:54;;;;;;;16.50;3.57;;;;;;;12.60;17.85;100348.94;30849491;28;20051;-75
2022/03/24 14:58:57;;;;;;;7.23;3.70;;;;;;;12.47;18.01;100345.38;30838932;28;20490;-77
2022/03/24 15:29:20;;;;;;;4.93;3.50;;;;;;;11.89;18.23;100349.78;30855076;28;20059;-76
2022/03/24 15:44:22;;;;;;;7.37;3.77;;;;;;;11.65;18.73;100354.50;30864936;28;20055;-81
2022/03/24 15:59:25;;;;;;;6.50;4.03;;;;;;;11.49;19.18;100354.44;30878322;28;20051;-76
2022/03/24 16:14:27;;;;;;;9.17;3.97;;;;;;;11.22;19.24;100341.75;30877554;28;20054;-74
2022/03/24 16:29:31;;;;;;;9.63;4.50;;;;;;;10.99;20.07;100387.94;30867678;28;20062;-76
2022/03/24 16:44:34;;;;;;;7.77;4.67;;;;;;;9.56;22.76;100402.69;30861301;28;20418;-76
2022/03/24 16:59:36;;;;;;;6.33;3.70;;;;;;;8.18;26.44;100411.84;30865364;28;20051;-76
2022/03/24 17:14:38;;;;;;;8.80;2.57;;;;;;;7.37;28.27;100429.09;30849321;28;20493;-78
2022/03/24 17:29:44;;;;;;;5.00;2.20;;;;;;;6.81;31.04;100444.16;30858866;28;20062;-79
2022/03/24 17:44:46;;;;;;;2.53;1.80;;;;;;;6.24;33.96;100473.69;30849703;28;20094;-77
2022/03/24 17:59:50;;;;;;;2.17;1.10;;;;;;;5.69;37.15;100492.63;30865893;28;20089;-78
2022/03/24 18:14:53;;;;;;;8.53;2.40;;;;;;;5.27;39.02;100492.31;30856529;28;20133;-79
2022/03/24 18:29:55;;;;;;;5.57;2.20;;;;;;;4.63;42.20;100534.75;30849495;28;20125;-76
2022/03/24 18:44:57;;;;;;;5.77;2.77;;;;;;;4.41;42.42;100553.31;30883864;28;20410;-79
2022/03/24 19:00:03;;;;;;;8.27;2.90;;;;;;;4.43;47.23;100575.25;30842396;28;20051;-79
2022/03/24 19:15:06;;;;;;;4.82;2.67;;;;;;;4.20;44.74;100569.16;30847682;28;20097;-79
2022/03/24 19:30:09;;;;;;;14.33;2.97;;;;;;;3.70;45.87;100555.03;30841119;28;20454;-76
2022/03/24 19:45:11;;;;;;;12.73;3.10;;;;;;;3.72;46.83;100568.09;30843352;28;20129;-74
2022/03/24 20:00:14;;;;;;;7.17;3.13;;;;;;;3.63;46.85;100565.63;30815476;28;20073;-76
2022/03/24 20:15:19;;;;;;;6.87;2.87;;;;;;;3.66;46.76;100580.25;30828689;28;20074;-80
2022/03/24 20:30:21;;;;;;;4.93;2.43;;;;;;;3.55;47.69;100557.81;30850525;28;20537;-77
2022/03/24 20:45:25;;;;;;;6.03;2.20;;;;;;;3.57;47.95;100553.66;30842737;28;20487;-74
2022/03/24 21:00:28;;;;;;;6.97;3.37;;;;;;;3.47;47.88;100532.03;30844288;28;20451;-75
2022/03/24 21:15:30;;;;;;;5.07;3.10;;;;;;;3.39;49.80;100553.38;30845426;28;20926;-76
2022/03/24 21:30:33;;;;;;;7.87;3.90;;;;;;;3.37;50.42;100565.59;30831423;28;20065;-75
2022/03/24 21:45:37;;;;;;;7.40;3.13;;;;;;;2.97;52.21;100569.50;30818270;28;20126;-74
2022/03/24 22:00:39;;;;;;;6.00;3.00;;;;;;;2.98;51.98;100552.28;30857026;28;20105;-74
2022/03/24 22:15:41;;;;;;;4.57;2.93;;;;;;;3.43;55.52;100550.75;30849483;28;20055;-74
2022/03/24 22:30:45;;;;;;;5.40;3.03;;;;;;;3.24;55.72;100538.19;30839920;28;20690;-74
2022/03/24 22:45:47;;;;;;;6.70;3.40;;;;;;;3.44;53.21;100528.16;30843381;28;20062;-75
2022/03/24 23:00:58;;;;;;;11.83;3.40;;;;;;;3.43;57.65;100529.28;30826831;28;20142;-74
2022/03/24 23:16:21;;;;;;;6.63;2.93;;;;;;;3.14;57.91;100535.28;30844681;28;20046;-74
2022/03/24 23:31:23;;;;;;;4.40;3.50;;;;;;;2.85;57.27;100526.75;30844427;28;20062;-74
2022/03/24 23:46:25;;;;;;;7.97;4.13;;;;;;;2.97;58.79;100529.28;30847392;28;20054;-74
